createdAt,value
2022-11-13T05:48:19.697Z,12.27
2022-11-13T05:50:46.331Z,11.65
2022-11-13T05:53:13.140Z,12.13
2022-11-13T05:55:39.788Z,12.38
2022-11-13T05:58:06.599Z,13.05
2022-11-13T06:00:34.312Z,11.57
2022-11-13T06:03:00.907Z,12.18
2022-11-13T06:05:27.571Z,12.18
2022-11-13T06:07:54.477Z,12.23
2022-11-13T06:10:21.108Z,13.02
2022-11-13T06:12:47.694Z,12.35
2022-11-13T06:15:14.515Z,12.48
2022-11-13T06:17:45.187Z,12.60
2022-11-13T06:20:11.847Z,12.07
2022-11-13T06:22:38.716Z,11.15
2022-11-13T06:25:05.852Z,11.10
2022-11-13T06:27:32.448Z,11.63
2022-11-13T06:29:59.247Z,13.23
2022-11-13T06:32:25.861Z,12.05
2022-11-13T06:34:52.523Z,10.95
2022-11-13T06:37:19.528Z,11.55
2022-11-13T06:39:46.146Z,12.13
2022-11-13T06:42:12.825Z,12.75
2022-11-13T06:44:39.645Z,11.60
2022-11-13T06:47:06.282Z,10.95
2022-11-13T06:49:33.135Z,11.32
2022-11-13T06:51:59.956Z,11.73
2022-11-13T06:54:26.805Z,11.02
2022-11-13T06:56:53.442Z,11.15
2022-11-13T06:59:20.111Z,11.57
2022-11-13T07:01:46.722Z,12.18
2022-11-13T07:04:14.217Z,11.77
2022-11-13T07:06:40.848Z,11.15
2022-11-13T07:09:08.613Z,13.23
2022-11-13T07:11:36.057Z,12.73
2022-11-13T07:14:02.661Z,12.48
2022-11-13T07:16:43.979Z,13.10
2022-11-13T07:19:16.305Z,11.15
2022-11-13T07:21:42.910Z,11.52
2022-11-13T07:24:15.560Z,11.32
2022-11-13T07:26:43.717Z,12.27
2022-11-13T07:29:11.585Z,12.57
2022-11-13T07:31:38.243Z,11.00
2022-11-13T07:34:05.175Z,13.77
2022-11-13T07:36:31.868Z,11.02
2022-11-13T07:39:00.372Z,11.32
2022-11-13T07:41:27.357Z,12.20
2022-11-13T07:43:53.969Z,11.52
2022-11-13T07:46:20.615Z,12.60
2022-11-13T07:48:47.550Z,12.50
2022-11-13T07:51:14.234Z,12.43
2022-11-13T07:53:40.839Z,12.93
2022-11-13T07:56:08.118Z,11.40
2022-11-13T07:58:34.755Z,11.85
2022-11-13T08:01:03.686Z,10.60
2022-11-13T08:03:31.653Z,10.40
2022-11-13T08:06:03.886Z,9.57
2022-11-13T08:08:31.116Z,10.82
2022-11-13T08:10:58.420Z,10.93
2022-11-13T08:13:25.121Z,11.55
2022-11-13T08:15:51.739Z,11.73
2022-11-13T08:18:18.588Z,12.40
2022-11-13T08:20:45.277Z,12.55
2022-11-13T08:23:11.913Z,11.40
2022-11-13T08:25:38.724Z,11.02
2022-11-13T08:28:10.140Z,11.13
2022-11-13T08:30:40.393Z,9.73
2022-11-13T08:33:06.984Z,11.15
2022-11-13T08:35:33.590Z,11.98
2022-11-13T08:38:04.959Z,11.90
2022-11-13T08:40:31.800Z,12.15
2022-11-13T08:43:02.923Z,10.45
2022-11-13T08:45:30.762Z,10.40
2022-11-13T08:48:04.901Z,11.63
2022-11-13T08:50:33.681Z,9.70
2022-11-13T08:53:01.536Z,9.82
2022-11-13T08:55:28.344Z,9.60
2022-11-13T08:57:59.563Z,8.18
2022-11-13T09:00:27.273Z,8.38
2022-11-13T09:02:58.903Z,7.40
2022-11-13T09:05:26.734Z,8.50
2022-11-13T09:07:58.786Z,8.98
2022-11-13T09:10:26.926Z,8.40
2022-11-13T09:13:04.439Z,7.88
2022-11-13T09:15:32.529Z,7.47
2022-11-13T09:18:00.672Z,8.23
2022-11-13T09:20:29.301Z,6.70
2022-11-13T09:22:59.996Z,6.25
2022-11-13T09:25:30.341Z,6.50
2022-11-13T09:28:03.090Z,7.20
2022-11-13T09:30:30.982Z,6.82
2022-11-13T09:33:00.983Z,7.13
2022-11-13T09:35:35.038Z,7.35
2022-11-13T09:38:08.012Z,7.47
2022-11-13T09:40:48.966Z,7.63
2022-11-13T09:43:38.837Z,6.68
2022-11-13T09:46:17.994Z,7.10
2022-11-13T09:48:54.571Z,6.55
2022-11-13T09:51:33.637Z,6.53
2022-11-13T09:54:05.752Z,6.30
2022-11-13T09:57:10.371Z,6.40
2022-11-13T09:59:45.586Z,5.70
2022-11-13T10:02:53.651Z,5.10
2022-11-13T10:05:35.420Z,5.35
2022-11-13T10:08:16.137Z,5.65
2022-11-13T10:11:07.513Z,5.47
2022-11-13T10:13:44.219Z,5.00
2022-11-13T10:16:49.524Z,4.43
2022-11-13T10:19:50.662Z,5.70
2022-11-13T10:22:34.254Z,5.03
2022-11-13T10:25:22.790Z,5.55
2022-11-13T10:27:56.772Z,5.50
2022-11-13T10:30:24.198Z,5.05
2022-11-13T10:32:51.361Z,4.93
2022-11-13T10:35:38.585Z,4.90
2022-11-13T10:38:25.746Z,5.00
2022-11-13T10:40:52.744Z,4.72
2022-11-13T10:43:22.959Z,4.70
2022-11-13T10:45:58.447Z,5.35
2022-11-13T10:48:32.979Z,4.88
2022-11-13T10:51:05.866Z,5.00
2022-11-13T10:53:42.728Z,4.75
2022-11-13T10:56:31.056Z,4.60
2022-11-13T10:59:12.432Z,4.60
2022-11-13T11:01:40.685Z,4.50
2022-11-13T11:04:24.220Z,4.75
2022-11-13T11:09:41.315Z,4.22
2022-11-13T11:12:24.299Z,4.43
2022-11-13T11:14:58.855Z,4.20
2022-11-13T11:17:43.913Z,4.35
2022-11-13T11:20:20.412Z,3.70
2022-11-13T11:22:55.403Z,4.07
2022-11-13T11:25:50.983Z,3.50
2022-11-13T11:28:39.950Z,4.00
2022-11-13T11:31:21.925Z,3.58
2022-11-13T11:33:58.122Z,3.60
2022-11-13T11:36:33.398Z,3.55
2022-11-13T11:41:55.068Z,3.75
2022-11-13T11:44:30.022Z,3.67
2022-11-13T11:46:56.710Z,3.53
2022-11-13T11:49:26.521Z,3.85
2022-11-13T11:52:38.217Z,3.95
2022-11-13T11:55:17.122Z,3.65
2022-11-13T11:58:01.441Z,3.72
2022-11-13T12:00:32.226Z,3.80
2022-11-13T12:03:14.315Z,3.35
2022-11-13T12:05:56.237Z,4.15
2022-11-13T12:09:01.645Z,3.85
2022-11-13T12:11:32.012Z,3.45
2022-11-13T12:14:19.378Z,3.85
2022-11-13T12:17:27.938Z,4.32
2022-11-13T12:20:19.168Z,4.20
2022-11-13T12:22:57.525Z,4.28
2022-11-13T12:25:35.972Z,4.78
2022-11-13T12:28:41.099Z,4.50
2022-11-13T12:31:49.658Z,4.27
2022-11-13T12:34:28.783Z,4.05
2022-11-13T12:36:56.793Z,4.30
2022-11-13T12:39:44.294Z,7.30
2022-11-13T12:42:34.696Z,4.45
2022-11-13T12:45:21.517Z,3.88
2022-11-13T12:47:50.411Z,3.50
2022-11-13T12:50:31.768Z,3.35
2022-11-13T12:53:05.128Z,2.90
2022-11-13T12:55:36.378Z,2.85
2022-11-13T12:58:28.906Z,2.30
2022-11-13T13:01:04.059Z,2.20
2022-11-13T13:06:18.358Z,3.20
2022-11-13T13:09:07.208Z,2.58
2022-11-13T13:11:59.973Z,3.92
2022-11-13T13:14:48.550Z,3.80
2022-11-13T13:17:15.171Z,3.80
2022-11-13T13:19:42.039Z,3.47
2022-11-13T13:22:12.267Z,3.72
2022-11-13T13:24:39.299Z,3.60
2022-11-13T13:27:27.853Z,4.22
2022-11-13T13:29:54.630Z,3.03
2022-11-13T13:32:56.450Z,2.25
2022-11-13T13:36:02.614Z,1.75
2022-11-13T13:41:16.525Z,1.80
2022-11-13T13:43:53.321Z,1.35
2022-11-13T13:46:27.041Z,1.55
2022-11-13T13:48:57.630Z,1.40
2022-11-13T13:51:31.072Z,1.40
2022-11-13T13:54:01.431Z,1.40
2022-11-13T13:56:28.101Z,1.60
2022-11-13T13:58:54.943Z,1.40
2022-11-13T14:01:33.621Z,1.70
2022-11-13T14:04:21.836Z,1.50
2022-11-13T14:06:56.920Z,1.67
2022-11-13T14:09:27.819Z,1.50
2022-11-13T14:12:06.229Z,1.60
2022-11-13T14:14:39.479Z,1.50
2022-11-13T14:17:07.265Z,1.52
2022-11-13T14:19:34.014Z,1.55
2022-11-13T14:22:03.927Z,1.63
2022-11-13T14:24:48.646Z,1.67
2022-11-13T14:27:23.379Z,1.60
2022-11-13T14:29:57.316Z,1.55
2022-11-13T14:32:30.473Z,1.60
2022-11-13T14:35:01.144Z,1.85
2022-11-13T14:37:33.412Z,1.65
2022-11-13T14:40:05.178Z,1.60
2022-11-13T14:42:38.614Z,1.60
2022-11-13T14:45:17.776Z,1.73
2022-11-13T14:47:56.757Z,1.80
2022-11-13T14:50:25.667Z,1.60
2022-11-13T14:52:57.366Z,1.80
2022-11-13T14:55:32.976Z,2.03
2022-11-13T14:57:59.726Z,1.70
2022-11-13T15:00:37.430Z,1.50
2022-11-13T15:03:06.001Z,1.95
2022-11-13T15:05:33.100Z,2.15
2022-11-13T15:08:00.483Z,2.30
2022-11-13T15:10:29.007Z,2.03
2022-11-13T15:12:55.782Z,1.80
2022-11-13T15:15:28.838Z,2.03
2022-11-13T15:17:56.017Z,2.20
2022-11-13T15:20:26.530Z,2.00
2022-11-13T15:22:55.777Z,1.90
2022-11-13T15:25:24.029Z,2.17
2022-11-13T15:27:53.747Z,2.70
2022-11-13T15:30:20.699Z,3.00
2022-11-13T15:32:49.320Z,3.40
2022-11-13T15:35:18.261Z,3.80
2022-11-13T15:37:45.692Z,3.85
2022-11-13T15:40:13.985Z,4.05
2022-11-13T15:42:41.413Z,4.60
2022-11-13T15:45:14.696Z,4.35
2022-11-13T15:47:41.428Z,5.38
2022-11-13T15:50:16.388Z,4.97
2022-11-13T15:52:47.532Z,5.65
2022-11-13T15:55:20.226Z,5.50
2022-11-13T15:57:46.966Z,5.70
2022-11-13T16:00:16.037Z,5.50
2022-11-13T16:02:42.749Z,5.40
2022-11-13T16:05:10.235Z,5.25
2022-11-13T16:07:41.178Z,5.65
2022-11-13T16:10:11.089Z,5.88
2022-11-13T16:12:38.367Z,6.07
2022-11-13T16:15:05.505Z,6.10
2022-11-13T16:17:38.950Z,6.82
2022-11-13T16:20:07.755Z,5.85
2022-11-13T16:22:34.416Z,5.85
2022-11-13T16:25:01.241Z,6.28
2022-11-13T16:27:32.338Z,5.75
2022-11-13T16:30:03.744Z,5.82
2022-11-13T16:32:33.541Z,5.95
2022-11-13T16:35:00.172Z,6.07
2022-11-13T16:37:26.806Z,5.72
2022-11-13T16:39:53.598Z,5.80
2022-11-13T16:42:20.228Z,5.97
2022-11-13T16:44:46.980Z,5.80
2022-11-13T16:47:25.489Z,6.38
2022-11-13T16:49:52.349Z,6.00
2022-11-13T16:52:19.383Z,5.93
2022-11-13T16:54:46.306Z,5.82
2022-11-13T16:57:14.174Z,6.97
2022-11-13T16:59:41.210Z,6.72
2022-11-13T17:02:17.163Z,6.55
2022-11-13T17:04:44.606Z,6.75
2022-11-13T17:07:14.081Z,7.35
2022-11-13T17:09:45.505Z,6.82
2022-11-13T17:12:12.257Z,6.70
2022-11-13T17:14:39.202Z,6.30
2022-11-13T17:17:07.624Z,6.93
2022-11-13T17:19:34.569Z,7.53
2022-11-13T17:22:01.600Z,6.53
2022-11-13T17:24:28.686Z,7.35
2022-11-13T17:26:55.601Z,6.95
2022-11-13T17:29:22.287Z,6.68
2022-11-13T17:31:49.252Z,7.68
2022-11-13T17:34:15.952Z,7.50
2022-11-13T17:36:42.614Z,7.13
2022-11-13T17:39:09.630Z,6.85
2022-11-13T17:41:37.415Z,7.40
2022-11-13T17:44:04.525Z,7.82
2022-11-13T17:46:31.525Z,8.35
2022-11-13T17:48:58.357Z,8.50
2022-11-13T17:51:25.057Z,7.40
2022-11-13T17:53:51.892Z,7.88
2022-11-13T17:56:20.243Z,8.23
2022-11-13T17:58:46.889Z,8.00
2022-11-13T18:01:19.878Z,7.57
2022-11-13T18:03:47.503Z,7.72
2022-11-13T18:06:20.011Z,8.25
2022-11-13T18:08:47.737Z,8.40
2022-11-13T18:11:17.092Z,8.23
2022-11-13T18:13:44.547Z,8.57
2022-11-13T18:16:14.829Z,8.27
2022-11-13T18:18:41.850Z,8.88
2022-11-13T18:21:22.362Z,8.55
2022-11-13T18:23:56.181Z,9.65
2022-11-13T18:26:23.416Z,9.38
2022-11-13T18:28:50.165Z,8.98
2022-11-13T18:31:18.735Z,10.40
2022-11-13T18:33:45.652Z,9.38
2022-11-13T18:36:12.469Z,11.10
2022-11-13T18:38:39.815Z,11.05
2022-11-13T18:41:09.061Z,10.00
2022-11-13T18:43:36.466Z,11.38
2022-11-13T18:46:06.597Z,14.68
2022-11-13T18:48:39.928Z,13.57
2022-11-13T18:51:11.010Z,11.77
2022-11-13T18:53:38.123Z,10.43
2022-11-13T18:56:07.366Z,11.38
2022-11-13T18:58:38.754Z,10.43
2022-11-13T19:01:25.022Z,10.43
2022-11-13T19:06:40.270Z,10.27
2022-11-13T19:09:11.230Z,12.43
2022-11-13T19:11:37.905Z,11.50
2022-11-13T19:14:04.657Z,12.00
2022-11-13T19:16:37.074Z,12.38
2022-11-13T19:19:13.881Z,12.80
2022-11-13T19:21:40.840Z,12.15
2022-11-13T19:24:08.854Z,13.35
2022-11-13T19:26:35.576Z,12.93
2022-11-13T19:29:02.451Z,12.73
2022-11-13T19:31:29.273Z,13.13
2022-11-13T19:34:07.923Z,13.40
2022-11-13T19:36:35.600Z,11.52
2022-11-13T19:39:02.819Z,14.05
2022-11-13T19:41:30.290Z,12.68
2022-11-13T19:44:00.535Z,13.02
2022-11-13T19:46:28.539Z,12.07
2022-11-13T19:48:55.389Z,12.07
2022-11-13T19:51:24.312Z,12.75
2022-11-13T19:53:56.215Z,13.00
2022-11-13T19:56:24.065Z,13.82
2022-11-13T19:58:51.625Z,13.90
2022-11-13T20:01:21.192Z,13.50
2022-11-13T20:03:48.232Z,13.27
2022-11-13T20:06:17.381Z,14.43
2022-11-13T20:08:44.496Z,12.18
2022-11-13T20:11:16.756Z,13.55
2022-11-13T20:13:43.943Z,14.82
2022-11-13T20:16:14.533Z,14.32
2022-11-13T20:18:42.623Z,14.20
2022-11-13T20:21:09.590Z,13.75
2022-11-13T20:23:36.895Z,14.73
2022-11-13T20:26:06.992Z,13.40
2022-11-13T20:28:33.809Z,14.38
2022-11-13T20:31:19.889Z,14.88
2022-11-13T20:33:47.789Z,13.48
2022-11-13T20:36:15.960Z,12.93
2022-11-13T20:38:48.032Z,14.45
2022-11-13T20:41:15.388Z,14.65
2022-11-13T20:43:42.088Z,14.20
2022-11-13T20:46:14.117Z,12.77
2022-11-13T20:48:40.773Z,13.23
2022-11-13T20:51:08.478Z,12.70
2022-11-13T20:53:35.508Z,14.70
2022-11-13T20:56:03.176Z,13.45
2022-11-13T20:58:30.416Z,13.70
2022-11-13T21:01:18.956Z,12.73
2022-11-13T21:03:47.676Z,12.68
2022-11-13T21:06:17.402Z,13.75
2022-11-13T21:08:45.145Z,12.20
2022-11-13T21:11:19.092Z,12.93
2022-11-13T21:13:47.772Z,12.95
2022-11-13T21:16:14.840Z,13.13
2022-11-13T21:18:41.878Z,13.52
2022-11-13T21:21:11.143Z,13.88
2022-11-13T21:23:38.321Z,13.30
2022-11-13T21:26:06.845Z,12.48
2022-11-13T21:28:34.297Z,12.25
2022-11-13T21:31:06.127Z,12.73
2022-11-13T21:33:40.795Z,11.07
2022-11-13T21:36:12.341Z,12.27
2022-11-13T21:38:39.595Z,12.57
2022-11-13T21:41:23.431Z,12.07
2022-11-13T21:43:55.934Z,13.00
2022-11-13T21:46:24.413Z,13.05
2022-11-13T21:48:56.372Z,11.73
2022-11-13T21:51:23.040Z,12.45
2022-11-13T21:53:50.281Z,10.95
2022-11-13T21:56:17.006Z,12.35
2022-11-13T21:58:44.377Z,12.88
2022-11-13T22:01:12.553Z,12.75
2022-11-13T22:03:39.504Z,11.55
2022-11-13T22:06:24.309Z,13.05
2022-11-13T22:09:00.831Z,12.30
2022-11-13T22:11:30.526Z,11.48
2022-11-13T22:13:57.679Z,12.38
2022-11-13T22:16:25.865Z,12.55
2022-11-13T22:18:57.387Z,12.65
2022-11-13T22:21:25.173Z,11.75
2022-11-13T22:23:52.013Z,12.75
2022-11-13T22:26:20.484Z,11.88
2022-11-13T22:28:48.256Z,12.55
2022-11-13T22:31:25.071Z,12.48
2022-11-13T22:33:55.201Z,12.27
2022-11-13T22:36:40.273Z,12.45
2022-11-13T22:39:07.124Z,12.00
2022-11-13T22:41:35.682Z,12.05
2022-11-13T22:44:06.345Z,11.00
2022-11-13T22:46:35.106Z,12.30
2022-11-13T22:49:03.680Z,13.35
2022-11-13T22:51:33.306Z,12.50
2022-11-13T22:54:02.262Z,13.13
2022-11-13T22:56:31.607Z,10.90
2022-11-13T22:59:00.170Z,12.25
2022-11-13T23:01:32.705Z,12.88
2022-11-13T23:04:05.494Z,10.80
2022-11-13T23:06:35.798Z,11.52
2022-11-13T23:09:03.579Z,11.88
2022-11-13T23:11:38.147Z,10.52
2022-11-13T23:14:07.981Z,10.63
2022-11-13T23:16:34.652Z,11.77
2022-11-13T23:19:02.309Z,11.35
2022-11-13T23:21:29.577Z,11.32
2022-11-13T23:23:56.883Z,10.02
2022-11-13T23:26:24.957Z,11.80
2022-11-13T23:28:51.791Z,11.48
2022-11-13T23:31:18.728Z,10.15
2022-11-13T23:33:45.789Z,10.55
2022-11-13T23:36:14.403Z,10.85
2022-11-13T23:38:41.837Z,10.75
2022-11-13T23:41:10.669Z,10.52
2022-11-13T23:44:06.923Z,10.40
2022-11-13T23:46:24.441Z,10.18
2022-11-13T23:48:51.089Z,9.93
2022-11-13T23:51:17.701Z,11.27
2022-11-13T23:53:44.603Z,11.70
2022-11-13T23:56:11.351Z,11.20
2022-11-13T23:58:37.978Z,11.63
